sensor_id;sensor_type;location;lat;lon;timestamp;temperature;humidity
13980;DHT22;73871;49.900;8.594;2024-01-10T00:00:39;-4.50;99.90
13980;DHT22;73871;49.900;8.594;2024-01-10T00:03:06;-4.50;99.90
13980;DHT22;73871;49.900;8.594;2024-01-10T00:05:33;-4.50;99.90
13980;DHT22;73871;49.900;8.594;2024-01-10T00:07:59;-4.50;99.90
13980;DHT22;73871;49.900;8.594;2024-01-10T00:10:26;-4.50;99.90
13980;DHT22;73871;49.900;8.594;2024-01-10T00:12:53;-4.50;99.90
13980;DHT22;73871;49.900;8.594;2024-01-10T00:15:20;-4.50;99.90
13980;DHT22;73871;49.900;8.594;2024-01-10T00:17:47;-4.50;99.90
13980;DHT22;73871;49.900;8.594;2024-01-10T00:20:14;-4.50;99.90
13980;DHT22;73871;49.900;8.594;2024-01-10T00:22:41;-4.50;99.90
13980;DHT22;73871;49.900;8.594;2024-01-10T00:25:08;-4.50;99.90
13980;DHT22;73871;49.900;8.594;2024-01-10T00:27:35;-4.50;99.90
13980;DHT22;73871;49.900;8.594;2024-01-10T00:30:01;-4.50;99.90
13980;DHT22;73871;49.900;8.594;2024-01-10T00:32:28;-4.60;99.90
13980;DHT22;73871;49.900;8.594;2024-01-10T00:34:55;-4.60;99.90
13980;DHT22;73871;49.900;8.594;2024-01-10T00:37:22;-4.50;99.90
13980;DHT22;73871;49.900;8.594;2024-01-10T00:39:48;-4.60;99.90
13980;DHT22;73871;49.900;8.594;2024-01-10T00:42:15;-4.60;99.90
13980;DHT22;73871;49.900;8.594;2024-01-10T00:44:42;-4.60;99.90
13980;DHT22;73871;49.900;8.594;2024-01-10T00:47:10;-4.60;99.90
13980;DHT22;73871;49.900;8.594;2024-01-10T00:49:37;-4.70;99.90
13980;DHT22;73871;49.900;8.594;2024-01-10T00:52:04;-4.70;99.90
13980;DHT22;73871;49.900;8.594;2024-01-10T00:54:31;-4.70;99.90
13980;DHT22;73871;49.900;8.594;2024-01-10T00:56:58;-4.70;99.90
13980;DHT22;73871;49.900;8.594;2024-01-10T00:59:24;-4.70;99.90
13980;DHT22;73871;49.900;8.594;2024-01-10T01:01:51;-4.70;99.90
13980;DHT22;73871;49.900;8.594;2024-01-10T01:04:19;-4.70;99.90
13980;DHT22;73871;49.900;8.594;2024-01-10T01:06:46;-4.70;99.90
13980;DHT22;73871;49.900;8.594;2024-01-10T01:09:13;-4.70;99.90
13980;DHT22;73871;49.900;8.594;2024-01-10T01:11:41;-4.70;99.90
13980;DHT22;73871;49.900;8.594;2024-01-10T01:14:09;-4.80;99.90
13980;DHT22;73871;49.900;8.594;2024-01-10T01:16:35;-4.80;99.90
13980;DHT22;73871;49.900;8.594;2024-01-10T01:19:02;-4.80;99.90
13980;DHT22;73871;49.900;8.594;2024-01-10T01:21:29;-4.80;99.90
13980;DHT22;73871;49.900;8.594;2024-01-10T01:23:56;-4.80;99.90
13980;DHT22;73871;49.900;8.594;2024-01-10T01:26:23;-4.80;99.90
13980;DHT22;73871;49.900;8.594;2024-01-10T01:28:50;-4.80;99.90
13980;DHT22;73871;49.900;8.594;2024-01-10T01:31:16;-4.80;99.90
13980;DHT22;73871;49.900;8.594;2024-01-10T01:33:45;-4.80;99.90
13980;DHT22;73871;49.900;8.594;2024-01-10T01:36:12;-4.80;99.90
13980;DHT22;73871;49.900;8.594;2024-01-10T01:38:39;-4.80;99.90
13980;DHT22;73871;49.900;8.594;2024-01-10T01:41:06;-4.90;99.90
13980;DHT22;73871;49.900;8.594;2024-01-10T01:43:33;-4.90;99.90
13980;DHT22;73871;49.900;8.594;2024-01-10T01:46:00;-4.90;99.90
13980;DHT22;73871;49.900;8.594;2024-01-10T01:48:28;-4.90;99.90
13980;DHT22;73871;49.900;8.594;2024-01-10T01:50:57;-4.90;99.90
13980;DHT22;73871;49.900;8.594;2024-01-10T01:53:26;-4.90;99.90
13980;DHT22;73871;49.900;8.594;2024-01-10T01:55:55;-4.90;99.90
13980;DHT22;73871;49.900;8.594;2024-01-10T01:58:23;-4.90;99.90
13980;DHT22;73871;49.900;8.594;2024-01-10T02:00:51;-4.90;99.90
13980;DHT22;73871;49.900;8.594;2024-01-10T02:03:18;-4.90;99.90
13980;DHT22;73871;49.900;8.594;2024-01-10T02:05:47;-4.90;99.90
13980;DHT22;73871;49.900;8.594;2024-01-10T02:08:14;-4.90;99.90
13980;DHT22;73871;49.900;8.594;2024-01-10T02:10:41;-4.90;99.90
13980;DHT22;73871;49.900;8.594;2024-01-10T02:13:08;-4.90;99.90
13980;DHT22;73871;49.900;8.594;2024-01-10T02:15:36;-4.90;99.90
13980;DHT22;73871;49.900;8.594;2024-01-10T02:18:04;-4.90;99.90
13980;DHT22;73871;49.900;8.594;2024-01-10T02:20:33;-5.00;99.90
13980;DHT22;73871;49.900;8.594;2024-01-10T02:23:00;-5.00;99.90
13980;DHT22;73871;49.900;8.594;2024-01-10T02:25:26;-4.90;99.90
13980;DHT22;73871;49.900;8.594;2024-01-10T02:27:53;-5.00;99.90
13980;DHT22;73871;49.900;8.594;2024-01-10T02:30:20;-5.00;99.90
13980;DHT22;73871;49.900;8.594;2024-01-10T02:32:47;-5.00;99.90
13980;DHT22;73871;49.900;8.594;2024-01-10T02:35:13;-5.00;99.90
13980;DHT22;73871;49.900;8.594;2024-01-10T02:37:40;-5.00;99.90
13980;DHT22;73871;49.900;8.594;2024-01-10T02:40:08;-5.00;99.90
13980;DHT22;73871;49.900;8.594;2024-01-10T02:42:35;-4.90;99.90
13980;DHT22;73871;49.900;8.594;2024-01-10T02:45:02;-4.90;99.90
13980;DHT22;73871;49.900;8.594;2024-01-10T02:47:29;-4.90;99.90
13980;DHT22;73871;49.900;8.594;2024-01-10T02:49:56;-4.90;99.90
13980;DHT22;73871;49.900;8.594;2024-01-10T02:52:22;-4.90;99.90
13980;DHT22;73871;49.900;8.594;2024-01-10T02:54:49;-4.90;99.90
13980;DHT22;73871;49.900;8.594;2024-01-10T02:57:16;-4.90;99.90
13980;DHT22;73871;49.900;8.594;2024-01-10T02:59:43;-4.90;99.90
13980;DHT22;73871;49.900;8.594;2024-01-10T03:02:10;-4.90;99.90
13980;DHT22;73871;49.900;8.594;2024-01-10T03:04:37;-4.90;99.90
13980;DHT22;73871;49.900;8.594;2024-01-10T03:07:04;-4.80;99.90
13980;DHT22;73871;49.900;8.594;2024-01-10T03:09:30;-4.80;99.90
13980;DHT22;73871;49.900;8.594;2024-01-10T03:11:57;-4.90;99.90
13980;DHT22;73871;49.900;8.594;2024-01-10T03:14:24;-4.80;99.90
13980;DHT22;73871;49.900;8.594;2024-01-10T03:16:51;-4.90;99.90
13980;DHT22;73871;49.900;8.594;2024-01-10T03:19:18;-4.80;99.90
13980;DHT22;73871;49.900;8.594;2024-01-10T03:21:45;-4.80;99.90
13980;DHT22;73871;49.900;8.594;2024-01-10T03:24:12;-4.80;99.90
13980;DHT22;73871;49.900;8.594;2024-01-10T03:26:39;-4.80;99.90
13980;DHT22;73871;49.900;8.594;2024-01-10T03:29:05;-4.80;99.90
13980;DHT22;73871;49.900;8.594;2024-01-10T03:31:32;-4.70;99.90
13980;DHT22;73871;49.900;8.594;2024-01-10T03:33:59;-4.70;99.90
13980;DHT22;73871;49.900;8.594;2024-01-10T03:36:26;-4.70;99.90
13980;DHT22;73871;49.900;8.594;2024-01-10T03:38:53;-4.70;99.90
13980;DHT22;73871;49.900;8.594;2024-01-10T03:41:20;-4.70;99.90
13980;DHT22;73871;49.900;8.594;2024-01-10T03:43:47;-4.70;99.90
13980;DHT22;73871;49.900;8.594;2024-01-10T03:46:17;-4.70;99.90
13980;DHT22;73871;49.900;8.594;2024-01-10T03:48:44;-4.60;99.90
13980;DHT22;73871;49.900;8.594;2024-01-10T03:51:16;-4.70;99.90
13980;DHT22;73871;49.900;8.594;2024-01-10T03:53:54;-4.60;99.90
13980;DHT22;73871;49.900;8.594;2024-01-10T03:56:21;-4.70;99.90
13980;DHT22;73871;49.900;8.594;2024-01-10T03:58:48;-4.70;99.90
13980;DHT22;73871;49.900;8.594;2024-01-10T04:01:15;-4.60;99.90
13980;DHT22;73871;49.900;8.594;2024-01-10T04:03:42;-4.60;99.90
13980;DHT22;73871;49.900;8.594;2024-01-10T04:06:10;-4.60;99.90
13980;DHT22;73871;49.900;8.594;2024-01-10T04:08:37;-4.60;99.90
13980;DHT22;73871;49.900;8.594;2024-01-10T04:11:04;-4.60;99.90
13980;DHT22;73871;49.900;8.594;2024-01-10T04:13:31;-4.60;99.90
13980;DHT22;73871;49.900;8.594;2024-01-10T04:15:58;-4.60;99.90
13980;DHT22;73871;49.900;8.594;2024-01-10T04:18:24;-4.60;99.90
13980;DHT22;73871;49.900;8.594;2024-01-10T04:20:51;-4.60;99.90
13980;DHT22;73871;49.900;8.594;2024-01-10T04:23:18;-4.60;99.90
13980;DHT22;73871;49.900;8.594;2024-01-10T04:25:45;-4.60;99.90
13980;DHT22;73871;49.900;8.594;2024-01-10T04:28:12;-4.60;99.90
13980;DHT22;73871;49.900;8.594;2024-01-10T04:30:39;-4.60;99.90
13980;DHT22;73871;49.900;8.594;2024-01-10T04:33:06;-4.60;99.90
13980;DHT22;73871;49.900;8.594;2024-01-10T04:35:33;-4.60;99.90
13980;DHT22;73871;49.900;8.594;2024-01-10T04:38:00;-4.60;99.90
13980;DHT22;73871;49.900;8.594;2024-01-10T04:40:27;-4.60;99.90
13980;DHT22;73871;49.900;8.594;2024-01-10T04:42:54;-4.70;99.90
13980;DHT22;73871;49.900;8.594;2024-01-10T04:45:21;-4.70;99.90
13980;DHT22;73871;49.900;8.594;2024-01-10T04:47:48;-4.60;99.90
13980;DHT22;73871;49.900;8.594;2024-01-10T04:50:15;-4.70;99.90
13980;DHT22;73871;49.900;8.594;2024-01-10T04:52:41;-4.70;99.90
13980;DHT22;73871;49.900;8.594;2024-01-10T04:55:09;-4.70;99.90
13980;DHT22;73871;49.900;8.594;2024-01-10T04:57:37;-4.80;99.90
13980;DHT22;73871;49.900;8.594;2024-01-10T05:00:05;-4.70;99.90
13980;DHT22;73871;49.900;8.594;2024-01-10T05:02:33;-4.70;99.90
13980;DHT22;73871;49.900;8.594;2024-01-10T05:04:59;-4.80;99.90
13980;DHT22;73871;49.900;8.594;2024-01-10T05:07:27;-4.80;99.90
13980;DHT22;73871;49.900;8.594;2024-01-10T05:09:54;-4.80;99.90
13980;DHT22;73871;49.900;8.594;2024-01-10T05:12:21;-4.90;99.90
13980;DHT22;73871;49.900;8.594;2024-01-10T05:14:47;-4.90;99.90
13980;DHT22;73871;49.900;8.594;2024-01-10T05:17:14;-4.90;99.90
13980;DHT22;73871;49.900;8.594;2024-01-10T05:19:42;-4.80;99.90
13980;DHT22;73871;49.900;8.594;2024-01-10T05:22:09;-4.70;99.90
13980;DHT22;73871;49.900;8.594;2024-01-10T05:24:35;-4.80;99.90
13980;DHT22;73871;49.900;8.594;2024-01-10T05:27:02;-4.80;99.90
13980;DHT22;73871;49.900;8.594;2024-01-10T05:29:29;-4.90;99.90
13980;DHT22;73871;49.900;8.594;2024-01-10T05:31:56;-4.80;99.90
13980;DHT22;73871;49.900;8.594;2024-01-10T05:34:23;-4.80;99.90
13980;DHT22;73871;49.900;8.594;2024-01-10T05:36:50;-4.80;99.90
13980;DHT22;73871;49.900;8.594;2024-01-10T05:39:20;-4.80;99.90
13980;DHT22;73871;49.900;8.594;2024-01-10T05:41:48;-4.80;99.90
13980;DHT22;73871;49.900;8.594;2024-01-10T05:44:15;-4.80;99.90
13980;DHT22;73871;49.900;8.594;2024-01-10T05:46:42;-4.80;99.90
13980;DHT22;73871;49.900;8.594;2024-01-10T05:49:09;-4.80;99.90
13980;DHT22;73871;49.900;8.594;2024-01-10T05:51:37;-4.80;99.90
13980;DHT22;73871;49.900;8.594;2024-01-10T05:54:04;-4.70;99.90
13980;DHT22;73871;49.900;8.594;2024-01-10T05:56:31;-4.70;99.90
13980;DHT22;73871;49.900;8.594;2024-01-10T05:58:58;-4.70;99.90
13980;DHT22;73871;49.900;8.594;2024-01-10T06:01:25;-4.70;99.90
13980;DHT22;73871;49.900;8.594;2024-01-10T06:03:51;-4.70;99.90
13980;DHT22;73871;49.900;8.594;2024-01-10T06:06:19;-4.80;99.90
13980;DHT22;73871;49.900;8.594;2024-01-10T06:08:46;-4.80;99.90
13980;DHT22;73871;49.900;8.594;2024-01-10T06:11:12;-4.80;99.90
13980;DHT22;73871;49.900;8.594;2024-01-10T06:13:39;-4.80;99.90
13980;DHT22;73871;49.900;8.594;2024-01-10T06:16:20;-4.70;99.90
13980;DHT22;73871;49.900;8.594;2024-01-10T06:18:47;-4.70;99.90
13980;DHT22;73871;49.900;8.594;2024-01-10T06:21:14;-4.80;99.90
13980;DHT22;73871;49.900;8.594;2024-01-10T06:23:40;-4.80;99.90
13980;DHT22;73871;49.900;8.594;2024-01-10T06:26:08;-4.80;99.90
13980;DHT22;73871;49.900;8.594;2024-01-10T06:28:35;-4.90;99.90
13980;DHT22;73871;49.900;8.594;2024-01-10T06:31:02;-4.90;99.90
13980;DHT22;73871;49.900;8.594;2024-01-10T06:33:29;-4.90;99.90
13980;DHT22;73871;49.900;8.594;2024-01-10T06:35:56;-4.90;99.90
13980;DHT22;73871;49.900;8.594;2024-01-10T06:38:23;-4.90;99.90
13980;DHT22;73871;49.900;8.594;2024-01-10T06:40:50;-4.90;99.90
13980;DHT22;73871;49.900;8.594;2024-01-10T06:43:18;-4.90;99.90
13980;DHT22;73871;49.900;8.594;2024-01-10T06:45:44;-4.90;99.90
13980;DHT22;73871;49.900;8.594;2024-01-10T06:48:12;-4.90;99.90
13980;DHT22;73871;49.900;8.594;2024-01-10T06:50:39;-4.80;99.90
13980;DHT22;73871;49.900;8.594;2024-01-10T06:53:06;-4.80;99.90
13980;DHT22;73871;49.900;8.594;2024-01-10T06:55:34;-4.80;99.90
13980;DHT22;73871;49.900;8.594;2024-01-10T06:58:01;-4.80;99.90
13980;DHT22;73871;49.900;8.594;2024-01-10T07:00:29;-4.80;99.90
13980;DHT22;73871;49.900;8.594;2024-01-10T07:02:56;-4.70;99.90
13980;DHT22;73871;49.900;8.594;2024-01-10T07:05:24;-4.70;99.90
13980;DHT22;73871;49.900;8.594;2024-01-10T07:07:51;-4.60;99.90
13980;DHT22;73871;49.900;8.594;2024-01-10T07:10:18;-4.70;99.90
13980;DHT22;73871;49.900;8.594;2024-01-10T07:12:45;-4.60;99.90
13980;DHT22;73871;49.900;8.594;2024-01-10T07:15:12;-4.60;99.90
13980;DHT22;73871;49.900;8.594;2024-01-10T07:17:39;-4.60;99.90
13980;DHT22;73871;49.900;8.594;2024-01-10T07:20:07;-4.50;99.90
13980;DHT22;73871;49.900;8.594;2024-01-10T07:22:34;-4.50;99.90
13980;DHT22;73871;49.900;8.594;2024-01-10T07:25:02;-4.50;99.90
13980;DHT22;73871;49.900;8.594;2024-01-10T07:27:29;-4.50;99.90
13980;DHT22;73871;49.900;8.594;2024-01-10T07:29:56;-4.50;99.90
13980;DHT22;73871;49.900;8.594;2024-01-10T07:32:24;-4.50;99.90
13980;DHT22;73871;49.900;8.594;2024-01-10T07:34:51;-4.50;99.90
13980;DHT22;73871;49.900;8.594;2024-01-10T07:37:18;-4.40;99.90
13980;DHT22;73871;49.900;8.594;2024-01-10T07:39:47;-4.40;99.90
13980;DHT22;73871;49.900;8.594;2024-01-10T07:42:14;-4.40;99.90
13980;DHT22;73871;49.900;8.594;2024-01-10T07:44:41;-4.40;99.90
13980;DHT22;73871;49.900;8.594;2024-01-10T07:47:11;-4.40;99.90
13980;DHT22;73871;49.900;8.594;2024-01-10T07:49:37;-4.40;99.90
13980;DHT22;73871;49.900;8.594;2024-01-10T07:52:05;-4.40;99.90
13980;DHT22;73871;49.900;8.594;2024-01-10T07:54:32;-4.30;99.90
13980;DHT22;73871;49.900;8.594;2024-01-10T07:56:59;-4.30;99.90
13980;DHT22;73871;49.900;8.594;2024-01-10T07:59:25;-4.20;99.90
13980;DHT22;73871;49.900;8.594;2024-01-10T08:01:56;-4.10;99.90
13980;DHT22;73871;49.900;8.594;2024-01-10T08:04:26;-4.00;99.90
13980;DHT22;73871;49.900;8.594;2024-01-10T08:06:53;-3.90;99.90
13980;DHT22;73871;49.900;8.594;2024-01-10T08:09:21;-3.70;99.90
13980;DHT22;73871;49.900;8.594;2024-01-10T08:11:47;-3.60;99.90
13980;DHT22;73871;49.900;8.594;2024-01-10T08:14:14;-3.40;99.90
13980;DHT22;73871;49.900;8.594;2024-01-10T08:16:43;-3.20;99.90
13980;DHT22;73871;49.900;8.594;2024-01-10T08:19:14;-3.00;99.90
13980;DHT22;73871;49.900;8.594;2024-01-10T08:21:41;-3.00;99.90
13980;DHT22;73871;49.900;8.594;2024-01-10T08:24:08;-2.80;99.90
13980;DHT22;73871;49.900;8.594;2024-01-10T08:26:35;-2.70;99.90
13980;DHT22;73871;49.900;8.594;2024-01-10T08:29:02;-2.50;99.90
13980;DHT22;73871;49.900;8.594;2024-01-10T08:31:28;-2.40;99.90
13980;DHT22;73871;49.900;8.594;2024-01-10T08:33:55;-2.30;99.90
13980;DHT22;73871;49.900;8.594;2024-01-10T08:36:25;-2.30;99.90
13980;DHT22;73871;49.900;8.594;2024-01-10T08:38:52;-2.30;99.90
13980;DHT22;73871;49.900;8.594;2024-01-10T08:41:19;-2.20;99.90
13980;DHT22;73871;49.900;8.594;2024-01-10T08:43:49;-2.20;99.90
13980;DHT22;73871;49.900;8.594;2024-01-10T08:46:16;-2.10;99.90
13980;DHT22;73871;49.900;8.594;2024-01-10T08:48:43;-1.90;99.90
13980;DHT22;73871;49.900;8.594;2024-01-10T08:51:10;-2.00;99.90
13980;DHT22;73871;49.900;8.594;2024-01-10T08:53:37;-2.00;99.90
13980;DHT22;73871;49.900;8.594;2024-01-10T08:56:04;-1.80;99.90
13980;DHT22;73871;49.900;8.594;2024-01-10T08:58:32;-1.60;99.90
13980;DHT22;73871;49.900;8.594;2024-01-10T09:00:58;-1.60;99.90
13980;DHT22;73871;49.900;8.594;2024-01-10T09:03:25;-1.60;99.90
13980;DHT22;73871;49.900;8.594;2024-01-10T09:05:52;-1.70;99.90
13980;DHT22;73871;49.900;8.594;2024-01-10T09:08:36;-1.60;99.90
13980;DHT22;73871;49.900;8.594;2024-01-10T09:11:03;-1.60;99.90
13980;DHT22;73871;49.900;8.594;2024-01-10T09:13:30;-1.60;99.90
13980;DHT22;73871;49.900;8.594;2024-01-10T09:15:57;-1.50;99.90
13980;DHT22;73871;49.900;8.594;2024-01-10T09:18:24;-1.50;99.90
13980;DHT22;73871;49.900;8.594;2024-01-10T09:20:51;-1.40;99.90
13980;DHT22;73871;49.900;8.594;2024-01-10T09:23:19;-1.40;99.90
13980;DHT22;73871;49.900;8.594;2024-01-10T09:25:46;-1.40;99.90
13980;DHT22;73871;49.900;8.594;2024-01-10T09:28:12;-1.50;99.90
13980;DHT22;73871;49.900;8.594;2024-01-10T09:30:39;-1.40;99.90
13980;DHT22;73871;49.900;8.594;2024-01-10T09:33:08;-1.50;99.90
13980;DHT22;73871;49.900;8.594;2024-01-10T09:35:35;-1.50;99.90
13980;DHT22;73871;49.900;8.594;2024-01-10T09:38:02;-1.70;99.90
13980;DHT22;73871;49.900;8.594;2024-01-10T09:40:30;-1.80;99.90
13980;DHT22;73871;49.900;8.594;2024-01-10T09:42:57;-1.60;99.90
13980;DHT22;73871;49.900;8.594;2024-01-10T09:45:24;-1.60;99.90
13980;DHT22;73871;49.900;8.594;2024-01-10T09:47:55;-1.60;99.90
13980;DHT22;73871;49.900;8.594;2024-01-10T09:50:23;-1.70;99.90
13980;DHT22;73871;49.900;8.594;2024-01-10T09:52:53;-1.70;99.90
13980;DHT22;73871;49.900;8.594;2024-01-10T09:55:22;-1.70;99.90
13980;DHT22;73871;49.900;8.594;2024-01-10T09:57:51;-1.70;99.90
13980;DHT22;73871;49.900;8.594;2024-01-10T10:00:18;-1.50;99.90
13980;DHT22;73871;49.900;8.594;2024-01-10T10:02:47;-1.60;99.90
13980;DHT22;73871;49.900;8.594;2024-01-10T10:05:17;-1.60;99.90
13980;DHT22;73871;49.900;8.594;2024-01-10T10:07:49;-1.60;99.90
13980;DHT22;73871;49.900;8.594;2024-01-10T10:10:18;-1.70;99.90
13980;DHT22;73871;49.900;8.594;2024-01-10T10:12:50;-1.50;99.90
13980;DHT22;73871;49.900;8.594;2024-01-10T10:15:24;-1.50;99.90
13980;DHT22;73871;49.900;8.594;2024-01-10T10:17:54;-1.30;99.90
13980;DHT22;73871;49.900;8.594;2024-01-10T10:20:29;-1.30;99.90
13980;DHT22;73871;49.900;8.594;2024-01-10T10:23:07;-1.20;99.90
13980;DHT22;73871;49.900;8.594;2024-01-10T10:25:42;-1.30;99.90
13980;DHT22;73871;49.900;8.594;2024-01-10T10:28:09;-1.30;99.90
13980;DHT22;73871;49.900;8.594;2024-01-10T10:30:51;-1.20;99.90
13980;DHT22;73871;49.900;8.594;2024-01-10T10:33:19;-1.10;99.90
13980;DHT22;73871;49.900;8.594;2024-01-10T10:35:46;-1.00;99.90
13980;DHT22;73871;49.900;8.594;2024-01-10T10:38:12;-0.80;99.90
13980;DHT22;73871;49.900;8.594;2024-01-10T10:40:39;-0.80;99.90
13980;DHT22;73871;49.900;8.594;2024-01-10T10:43:12;-0.80;99.90
13980;DHT22;73871;49.900;8.594;2024-01-10T10:45:46;-0.50;99.90
13980;DHT22;73871;49.900;8.594;2024-01-10T10:48:16;-0.60;99.90
13980;DHT22;73871;49.900;8.594;2024-01-10T10:50:54;-0.70;99.90
13980;DHT22;73871;49.900;8.594;2024-01-10T10:53:25;-0.60;99.90
13980;DHT22;73871;49.900;8.594;2024-01-10T10:55:55;-0.50;99.90
13980;DHT22;73871;49.900;8.594;2024-01-10T10:58:23;-0.40;99.90
13980;DHT22;73871;49.900;8.594;2024-01-10T11:00:51;-0.30;99.90
13980;DHT22;73871;49.900;8.594;2024-01-10T11:03:19;-0.20;99.90
13980;DHT22;73871;49.900;8.594;2024-01-10T11:05:47;-0.10;99.90
13980;DHT22;73871;49.900;8.594;2024-01-10T11:08:17;0.10;99.90
13980;DHT22;73871;49.900;8.594;2024-01-10T11:10:46;0.20;99.90
13980;DHT22;73871;49.900;8.594;2024-01-10T11:22:16;0.80;99.90
13980;DHT22;73871;49.900;8.594;2024-01-10T11:24:45;0.60;99.90
13980;DHT22;73871;49.900;8.594;2024-01-10T11:27:13;0.50;99.90
13980;DHT22;73871;49.900;8.594;2024-01-10T11:29:41;0.60;99.90
13980;DHT22;73871;49.900;8.594;2024-01-10T11:32:16;0.70;99.90
13980;DHT22;73871;49.900;8.594;2024-01-10T11:34:58;0.70;99.90
13980;DHT22;73871;49.900;8.594;2024-01-10T11:37:38;0.90;99.90
13980;DHT22;73871;49.900;8.594;2024-01-10T11:40:09;0.90;99.90
13980;DHT22;73871;49.900;8.594;2024-01-10T11:42:43;0.80;99.90
13980;DHT22;73871;49.900;8.594;2024-01-10T11:45:10;0.70;99.90
13980;DHT22;73871;49.900;8.594;2024-01-10T11:47:42;0.80;99.90
13980;DHT22;73871;49.900;8.594;2024-01-10T11:50:18;0.60;99.90
13980;DHT22;73871;49.900;8.594;2024-01-10T11:52:46;0.60;99.90
13980;DHT22;73871;49.900;8.594;2024-01-10T11:55:51;0.70;99.90
13980;DHT22;73871;49.900;8.594;2024-01-10T11:58:23;0.80;99.90
13980;DHT22;73871;49.900;8.594;2024-01-10T12:00:50;1.00;99.90
13980;DHT22;73871;49.900;8.594;2024-01-10T12:03:18;1.10;99.90
13980;DHT22;73871;49.900;8.594;2024-01-10T12:05:45;0.90;99.90
13980;DHT22;73871;49.900;8.594;2024-01-10T12:08:12;0.90;99.90
13980;DHT22;73871;49.900;8.594;2024-01-10T12:10:45;0.90;99.90
13980;DHT22;73871;49.900;8.594;2024-01-10T12:13:13;1.00;99.90
13980;DHT22;73871;49.900;8.594;2024-01-10T12:15:40;1.10;99.90
13980;DHT22;73871;49.900;8.594;2024-01-10T12:18:07;1.20;99.90
13980;DHT22;73871;49.900;8.594;2024-01-10T12:20:36;1.20;99.90
13980;DHT22;73871;49.900;8.594;2024-01-10T12:23:03;1.20;99.90
13980;DHT22;73871;49.900;8.594;2024-01-10T12:25:29;1.10;99.90
13980;DHT22;73871;49.900;8.594;2024-01-10T12:28:01;1.30;99.90
13980;DHT22;73871;49.900;8.594;2024-01-10T12:30:28;1.50;99.90
13980;DHT22;73871;49.900;8.594;2024-01-10T12:32:55;1.40;99.90
13980;DHT22;73871;49.900;8.594;2024-01-10T12:35:22;1.10;99.90
13980;DHT22;73871;49.900;8.594;2024-01-10T12:37:55;1.10;99.90
13980;DHT22;73871;49.900;8.594;2024-01-10T12:40:22;1.10;99.90
13980;DHT22;73871;49.900;8.594;2024-01-10T12:42:49;1.20;99.90
13980;DHT22;73871;49.900;8.594;2024-01-10T12:45:28;1.10;99.90
13980;DHT22;73871;49.900;8.594;2024-01-10T12:47:56;1.00;99.90
13980;DHT22;73871;49.900;8.594;2024-01-10T12:50:24;1.00;99.90
13980;DHT22;73871;49.900;8.594;2024-01-10T12:52:54;0.90;99.90
13980;DHT22;73871;49.900;8.594;2024-01-10T12:55:21;0.60;99.90
13980;DHT22;73871;49.900;8.594;2024-01-10T12:57:51;0.60;99.90
13980;DHT22;73871;49.900;8.594;2024-01-10T13:00:19;0.80;99.90
13980;DHT22;73871;49.900;8.594;2024-01-10T13:02:45;0.90;99.90
13980;DHT22;73871;49.900;8.594;2024-01-10T13:05:13;1.10;99.90
13980;DHT22;73871;49.900;8.594;2024-01-10T13:07:40;1.10;99.90
13980;DHT22;73871;49.900;8.594;2024-01-10T13:10:07;0.90;99.90
13980;DHT22;73871;49.900;8.594;2024-01-10T13:12:34;0.90;99.90
13980;DHT22;73871;49.900;8.594;2024-01-10T13:15:00;0.90;99.90
13980;DHT22;73871;49.900;8.594;2024-01-10T13:17:28;1.00;99.90
13980;DHT22;73871;49.900;8.594;2024-01-10T13:19:56;0.90;99.90
13980;DHT22;73871;49.900;8.594;2024-01-10T13:22:24;0.90;99.90
13980;DHT22;73871;49.900;8.594;2024-01-10T13:24:51;0.90;99.90
13980;DHT22;73871;49.900;8.594;2024-01-10T13:27:19;0.90;99.90
13980;DHT22;73871;49.900;8.594;2024-01-10T13:29:47;1.00;99.90
13980;DHT22;73871;49.900;8.594;2024-01-10T13:32:14;1.10;99.90
13980;DHT22;73871;49.900;8.594;2024-01-10T13:34:42;1.00;99.90
13980;DHT22;73871;49.900;8.594;2024-01-10T13:37:10;1.00;99.90
13980;DHT22;73871;49.900;8.594;2024-01-10T13:39:41;1.00;99.90
13980;DHT22;73871;49.900;8.594;2024-01-10T13:42:08;0.90;99.90
13980;DHT22;73871;49.900;8.594;2024-01-10T13:44:37;0.90;99.90
13980;DHT22;73871;49.900;8.594;2024-01-10T13:47:03;0.90;99.90
13980;DHT22;73871;49.900;8.594;2024-01-10T13:49:30;0.90;99.90
13980;DHT22;73871;49.900;8.594;2024-01-10T13:51:57;0.80;99.90
13980;DHT22;73871;49.900;8.594;2024-01-10T13:54:24;0.80;99.90
13980;DHT22;73871;49.900;8.594;2024-01-10T13:56:51;0.70;99.90
13980;DHT22;73871;49.900;8.594;2024-01-10T13:59:17;0.80;99.90
13980;DHT22;73871;49.900;8.594;2024-01-10T14:01:44;0.80;99.90
13980;DHT22;73871;49.900;8.594;2024-01-10T14:04:11;0.80;99.90
13980;DHT22;73871;49.900;8.594;2024-01-10T14:06:38;0.80;99.90
13980;DHT22;73871;49.900;8.594;2024-01-10T14:09:05;0.80;99.90
13980;DHT22;73871;49.900;8.594;2024-01-10T14:11:33;0.80;99.90
13980;DHT22;73871;49.900;8.594;2024-01-10T14:14:01;0.80;99.90
13980;DHT22;73871;49.900;8.594;2024-01-10T14:16:28;0.80;99.90
13980;DHT22;73871;49.900;8.594;2024-01-10T14:18:55;0.70;99.90
13980;DHT22;73871;49.900;8.594;2024-01-10T14:21:22;0.70;99.90
13980;DHT22;73871;49.900;8.594;2024-01-10T14:23:49;0.70;99.90
13980;DHT22;73871;49.900;8.594;2024-01-10T14:26:16;0.70;99.90
13980;DHT22;73871;49.900;8.594;2024-01-10T14:28:43;0.70;99.90
13980;DHT22;73871;49.900;8.594;2024-01-10T14:31:10;0.60;99.90
13980;DHT22;73871;49.900;8.594;2024-01-10T14:33:55;0.60;99.90
13980;DHT22;73871;49.900;8.594;2024-01-10T14:36:23;0.50;99.90
13980;DHT22;73871;49.900;8.594;2024-01-10T14:38:50;0.50;99.90
13980;DHT22;73871;49.900;8.594;2024-01-10T14:41:17;0.50;99.90
13980;DHT22;73871;49.900;8.594;2024-01-10T14:43:44;0.50;99.90
13980;DHT22;73871;49.900;8.594;2024-01-10T14:46:11;0.50;99.90
13980;DHT22;73871;49.900;8.594;2024-01-10T14:48:38;0.50;99.90
13980;DHT22;73871;49.900;8.594;2024-01-10T14:51:05;0.50;99.90
13980;DHT22;73871;49.900;8.594;2024-01-10T14:53:33;0.50;99.90
13980;DHT22;73871;49.900;8.594;2024-01-10T14:56:01;0.50;99.90
13980;DHT22;73871;49.900;8.594;2024-01-10T14:58:29;0.40;99.90
13980;DHT22;73871;49.900;8.594;2024-01-10T15:00:56;0.40;99.90
13980;DHT22;73871;49.900;8.594;2024-01-10T15:03:23;0.30;99.90
13980;DHT22;73871;49.900;8.594;2024-01-10T15:05:53;0.30;99.90
13980;DHT22;73871;49.900;8.594;2024-01-10T15:08:20;0.30;99.90
13980;DHT22;73871;49.900;8.594;2024-01-10T15:10:47;0.30;99.90
13980;DHT22;73871;49.900;8.594;2024-01-10T15:13:14;0.30;99.90
13980;DHT22;73871;49.900;8.594;2024-01-10T15:15:41;0.30;99.90
13980;DHT22;73871;49.900;8.594;2024-01-10T15:18:09;0.30;99.90
13980;DHT22;73871;49.900;8.594;2024-01-10T15:20:35;0.30;99.90
13980;DHT22;73871;49.900;8.594;2024-01-10T15:23:02;0.20;99.90
13980;DHT22;73871;49.900;8.594;2024-01-10T15:25:29;0.20;99.90
13980;DHT22;73871;49.900;8.594;2024-01-10T15:27:56;0.10;99.90
13980;DHT22;73871;49.900;8.594;2024-01-10T15:30:22;0.10;99.90
13980;DHT22;73871;49.900;8.594;2024-01-10T15:32:59;0.00;99.90
13980;DHT22;73871;49.900;8.594;2024-01-10T15:35:26;0.00;99.90
13980;DHT22;73871;49.900;8.594;2024-01-10T15:37:53;0.00;99.90
13980;DHT22;73871;49.900;8.594;2024-01-10T15:40:20;-0.10;99.90
13980;DHT22;73871;49.900;8.594;2024-01-10T15:42:47;-0.10;99.90
13980;DHT22;73871;49.900;8.594;2024-01-10T15:45:14;-0.20;99.90
13980;DHT22;73871;49.900;8.594;2024-01-10T15:47:42;-0.20;99.90